sensor_id;sensor_type;location;lat;lon;timestamp;P1;durP1;ratioP1;P2;durP2;ratioP2
2289;SDS011;1153;47.986;7.898;2023-04-25T00:01:45;1.30;;;1.20;;
2289;SDS011;1153;47.986;7.898;2023-04-25T00:04:10;3.93;;;1.20;;
2289;SDS011;1153;47.986;7.898;2023-04-25T00:06:36;4.20;;;0.90;;
2289;SDS011;1153;47.986;7.898;2023-04-25T00:09:02;1.07;;;0.90;;
2289;SDS011;1153;47.986;7.898;2023-04-25T00:11:28;4.03;;;1.40;;
2289;SDS011;1153;47.986;7.898;2023-04-25T00:13:55;1.43;;;1.00;;
2289;SDS011;1153;47.986;7.898;2023-04-25T00:16:20;2.50;;;0.80;;
2289;SDS011;1153;47.986;7.898;2023-04-25T00:18:45;3.77;;;0.90;;
2289;SDS011;1153;47.986;7.898;2023-04-25T00:21:16;2.43;;;0.97;;
2289;SDS011;1153;47.986;7.898;2023-04-25T00:23:43;3.63;;;1.40;;
2289;SDS011;1153;47.986;7.898;2023-04-25T00:26:08;9.73;;;0.90;;
2289;SDS011;1153;47.986;7.898;2023-04-25T00:28:33;3.67;;;1.13;;
2289;SDS011;1153;47.986;7.898;2023-04-25T00:30:58;1.00;;;0.60;;
2289;SDS011;1153;47.986;7.898;2023-04-25T00:33:23;1.73;;;0.90;;
2289;SDS011;1153;47.986;7.898;2023-04-25T00:35:49;0.97;;;0.60;;
2289;SDS011;1153;47.986;7.898;2023-04-25T00:38:14;1.10;;;0.90;;
2289;SDS011;1153;47.986;7.898;2023-04-25T00:40:39;5.03;;;0.60;;
2289;SDS011;1153;47.986;7.898;2023-04-25T00:43:05;1.03;;;0.80;;
2289;SDS011;1153;47.986;7.898;2023-04-25T00:45:30;1.13;;;1.03;;
2289;SDS011;1153;47.986;7.898;2023-04-25T00:47:55;2.13;;;1.13;;
2289;SDS011;1153;47.986;7.898;2023-04-25T00:50:21;2.50;;;1.27;;
2289;SDS011;1153;47.986;7.898;2023-04-25T00:52:46;6.43;;;1.30;;
2289;SDS011;1153;47.986;7.898;2023-04-25T00:55:12;2.70;;;1.03;;
2289;SDS011;1153;47.986;7.898;2023-04-25T00:57:37;1.90;;;1.23;;
2289;SDS011;1153;47.986;7.898;2023-04-25T01:00:03;1.20;;;0.90;;
2289;SDS011;1153;47.986;7.898;2023-04-25T01:02:30;2.70;;;1.17;;
2289;SDS011;1153;47.986;7.898;2023-04-25T01:04:56;1.93;;;0.80;;
2289;SDS011;1153;47.986;7.898;2023-04-25T01:07:22;3.33;;;1.03;;
2289;SDS011;1153;47.986;7.898;2023-04-25T01:09:47;1.40;;;0.93;;
2289;SDS011;1153;47.986;7.898;2023-04-25T01:12:12;5.10;;;1.00;;
2289;SDS011;1153;47.986;7.898;2023-04-25T01:14:39;4.80;;;0.90;;
2289;SDS011;1153;47.986;7.898;2023-04-25T01:17:04;3.00;;;1.03;;
2289;SDS011;1153;47.986;7.898;2023-04-25T01:19:30;1.23;;;0.93;;
2289;SDS011;1153;47.986;7.898;2023-04-25T01:21:55;2.93;;;1.77;;
2289;SDS011;1153;47.986;7.898;2023-04-25T01:24:21;3.90;;;1.50;;
2289;SDS011;1153;47.986;7.898;2023-04-25T01:26:46;1.63;;;1.37;;
2289;SDS011;1153;47.986;7.898;2023-04-25T01:29:17;5.10;;;1.77;;
2289;SDS011;1153;47.986;7.898;2023-04-25T01:31:43;2.60;;;1.10;;
2289;SDS011;1153;47.986;7.898;2023-04-25T01:34:09;2.90;;;1.23;;
2289;SDS011;1153;47.986;7.898;2023-04-25T01:36:34;3.00;;;1.10;;
2289;SDS011;1153;47.986;7.898;2023-04-25T01:39:00;1.20;;;1.10;;
2289;SDS011;1153;47.986;7.898;2023-04-25T01:41:25;1.30;;;1.00;;
2289;SDS011;1153;47.986;7.898;2023-04-25T01:43:51;1.70;;;1.33;;
2289;SDS011;1153;47.986;7.898;2023-04-25T01:46:16;1.50;;;1.20;;
2289;SDS011;1153;47.986;7.898;2023-04-25T01:48:41;1.10;;;0.93;;
2289;SDS011;1153;47.986;7.898;2023-04-25T01:51:06;3.73;;;1.20;;
2289;SDS011;1153;47.986;7.898;2023-04-25T01:53:32;3.93;;;1.57;;
2289;SDS011;1153;47.986;7.898;2023-04-25T01:55:57;1.60;;;1.30;;
2289;SDS011;1153;47.986;7.898;2023-04-25T01:58:22;4.20;;;1.67;;
2289;SDS011;1153;47.986;7.898;2023-04-25T02:00:47;3.30;;;1.20;;
2289;SDS011;1153;47.986;7.898;2023-04-25T02:03:12;1.40;;;1.13;;
2289;SDS011;1153;47.986;7.898;2023-04-25T02:05:38;2.17;;;1.30;;
2289;SDS011;1153;47.986;7.898;2023-04-25T02:08:08;8.43;;;1.40;;
2289;SDS011;1153;47.986;7.898;2023-04-25T02:10:33;2.13;;;1.00;;
2289;SDS011;1153;47.986;7.898;2023-04-25T02:12:59;8.43;;;1.30;;
2289;SDS011;1153;47.986;7.898;2023-04-25T02:15:24;1.50;;;1.40;;
2289;SDS011;1153;47.986;7.898;2023-04-25T02:17:49;2.60;;;1.13;;
2289;SDS011;1153;47.986;7.898;2023-04-25T02:20:14;2.60;;;1.33;;
2289;SDS011;1153;47.986;7.898;2023-04-25T02:22:41;1.67;;;1.43;;
2289;SDS011;1153;47.986;7.898;2023-04-25T02:25:06;2.03;;;1.43;;
2289;SDS011;1153;47.986;7.898;2023-04-25T02:27:32;1.27;;;1.17;;
2289;SDS011;1153;47.986;7.898;2023-04-25T02:29:57;1.30;;;1.20;;
2289;SDS011;1153;47.986;7.898;2023-04-25T02:32:22;6.37;;;1.83;;
2289;SDS011;1153;47.986;7.898;2023-04-25T02:34:48;8.97;;;3.23;;
2289;SDS011;1153;47.986;7.898;2023-04-25T02:37:13;6.33;;;1.10;;
2289;SDS011;1153;47.986;7.898;2023-04-25T02:39:38;2.23;;;1.63;;
2289;SDS011;1153;47.986;7.898;2023-04-25T02:42:04;1.63;;;1.27;;
2289;SDS011;1153;47.986;7.898;2023-04-25T02:44:29;2.97;;;1.33;;
2289;SDS011;1153;47.986;7.898;2023-04-25T02:46:54;3.93;;;1.27;;
2289;SDS011;1153;47.986;7.898;2023-04-25T02:49:19;2.90;;;1.00;;
2289;SDS011;1153;47.986;7.898;2023-04-25T02:51:44;2.57;;;2.30;;
2289;SDS011;1153;47.986;7.898;2023-04-25T02:54:10;1.90;;;1.00;;
2289;SDS011;1153;47.986;7.898;2023-04-25T02:56:35;8.63;;;2.13;;
2289;SDS011;1153;47.986;7.898;2023-04-25T02:59:00;5.53;;;1.40;;
2289;SDS011;1153;47.986;7.898;2023-04-25T03:01:25;4.93;;;2.73;;
2289;SDS011;1153;47.986;7.898;2023-04-25T03:03:51;7.33;;;1.30;;
2289;SDS011;1153;47.986;7.898;2023-04-25T03:06:16;3.30;;;1.10;;
2289;SDS011;1153;47.986;7.898;2023-04-25T03:08:41;1.87;;;1.77;;
2289;SDS011;1153;47.986;7.898;2023-04-25T03:11:06;2.27;;;1.33;;
2289;SDS011;1153;47.986;7.898;2023-04-25T03:13:31;3.23;;;1.67;;
2289;SDS011;1153;47.986;7.898;2023-04-25T03:15:57;1.50;;;1.30;;
2289;SDS011;1153;47.986;7.898;2023-04-25T03:18:22;1.13;;;1.00;;
2289;SDS011;1153;47.986;7.898;2023-04-25T03:20:47;2.60;;;1.23;;
2289;SDS011;1153;47.986;7.898;2023-04-25T03:23:12;1.53;;;1.43;;
2289;SDS011;1153;47.986;7.898;2023-04-25T03:25:37;1.57;;;1.47;;
2289;SDS011;1153;47.986;7.898;2023-04-25T03:28:02;3.70;;;1.10;;
2289;SDS011;1153;47.986;7.898;2023-04-25T03:30:28;1.33;;;1.20;;
2289;SDS011;1153;47.986;7.898;2023-04-25T03:32:53;2.00;;;1.33;;
2289;SDS011;1153;47.986;7.898;2023-04-25T03:35:18;2.80;;;1.40;;
2289;SDS011;1153;47.986;7.898;2023-04-25T03:37:43;5.20;;;1.53;;
2289;SDS011;1153;47.986;7.898;2023-04-25T03:40:10;1.37;;;1.17;;
2289;SDS011;1153;47.986;7.898;2023-04-25T03:42:36;1.53;;;1.43;;
2289;SDS011;1153;47.986;7.898;2023-04-25T03:45:01;2.40;;;1.17;;
2289;SDS011;1153;47.986;7.898;2023-04-25T03:47:26;3.40;;;1.57;;
2289;SDS011;1153;47.986;7.898;2023-04-25T03:49:51;2.83;;;0.90;;
2289;SDS011;1153;47.986;7.898;2023-04-25T03:52:16;1.40;;;1.30;;
2289;SDS011;1153;47.986;7.898;2023-04-25T03:54:41;2.57;;;1.37;;
2289;SDS011;1153;47.986;7.898;2023-04-25T03:57:07;1.93;;;1.37;;
2289;SDS011;1153;47.986;7.898;2023-04-25T03:59:32;3.03;;;1.57;;
2289;SDS011;1153;47.986;7.898;2023-04-25T04:01:57;1.20;;;1.10;;
2289;SDS011;1153;47.986;7.898;2023-04-25T04:04:22;2.30;;;1.33;;
2289;SDS011;1153;47.986;7.898;2023-04-25T04:06:47;3.03;;;1.50;;
2289;SDS011;1153;47.986;7.898;2023-04-25T04:09:13;5.20;;;3.07;;
2289;SDS011;1153;47.986;7.898;2023-04-25T04:11:38;1.80;;;1.40;;
2289;SDS011;1153;47.986;7.898;2023-04-25T04:14:05;4.13;;;1.90;;
2289;SDS011;1153;47.986;7.898;2023-04-25T04:16:30;3.43;;;1.30;;
2289;SDS011;1153;47.986;7.898;2023-04-25T04:18:55;5.93;;;0.90;;
2289;SDS011;1153;47.986;7.898;2023-04-25T04:21:21;2.10;;;1.20;;
2289;SDS011;1153;47.986;7.898;2023-04-25T04:23:46;2.53;;;1.03;;
2289;SDS011;1153;47.986;7.898;2023-04-25T04:26:12;1.87;;;1.23;;
2289;SDS011;1153;47.986;7.898;2023-04-25T04:28:38;1.67;;;1.50;;
2289;SDS011;1153;47.986;7.898;2023-04-25T04:31:03;5.13;;;1.83;;
2289;SDS011;1153;47.986;7.898;2023-04-25T04:33:28;1.97;;;1.33;;
2289;SDS011;1153;47.986;7.898;2023-04-25T04:35:54;2.70;;;1.47;;
2289;SDS011;1153;47.986;7.898;2023-04-25T04:38:20;2.90;;;1.00;;
2289;SDS011;1153;47.986;7.898;2023-04-25T04:40:46;2.63;;;1.07;;
2289;SDS011;1153;47.986;7.898;2023-04-25T04:43:12;1.20;;;1.10;;
2289;SDS011;1153;47.986;7.898;2023-04-25T04:45:38;3.30;;;1.57;;
2289;SDS011;1153;47.986;7.898;2023-04-25T04:48:05;3.43;;;1.70;;
2289;SDS011;1153;47.986;7.898;2023-04-25T04:50:30;3.73;;;1.43;;
2289;SDS011;1153;47.986;7.898;2023-04-25T04:52:57;1.40;;;0.90;;
2289;SDS011;1153;47.986;7.898;2023-04-25T04:55:22;5.10;;;4.17;;
2289;SDS011;1153;47.986;7.898;2023-04-25T04:57:47;9.80;;;4.20;;
2289;SDS011;1153;47.986;7.898;2023-04-25T05:00:13;5.77;;;3.00;;
2289;SDS011;1153;47.986;7.898;2023-04-25T05:02:38;1.90;;;1.80;;
2289;SDS011;1153;47.986;7.898;2023-04-25T05:05:04;2.43;;;1.43;;
2289;SDS011;1153;47.986;7.898;2023-04-25T05:07:31;2.47;;;1.37;;
2289;SDS011;1153;47.986;7.898;2023-04-25T05:09:56;1.30;;;1.20;;
2289;SDS011;1153;47.986;7.898;2023-04-25T05:12:21;1.77;;;1.67;;
2289;SDS011;1153;47.986;7.898;2023-04-25T05:14:46;1.77;;;1.20;;
2289;SDS011;1153;47.986;7.898;2023-04-25T05:17:12;3.00;;;1.20;;
2289;SDS011;1153;47.986;7.898;2023-04-25T05:19:37;1.27;;;1.13;;
2289;SDS011;1153;47.986;7.898;2023-04-25T05:22:03;1.30;;;1.10;;
2289;SDS011;1153;47.986;7.898;2023-04-25T05:24:28;3.37;;;1.23;;
2289;SDS011;1153;47.986;7.898;2023-04-25T05:26:53;3.20;;;2.17;;
2289;SDS011;1153;47.986;7.898;2023-04-25T05:29:18;1.73;;;1.60;;
2289;SDS011;1153;47.986;7.898;2023-04-25T05:31:44;2.73;;;1.43;;
2289;SDS011;1153;47.986;7.898;2023-04-25T05:34:09;3.77;;;1.53;;
2289;SDS011;1153;47.986;7.898;2023-04-25T05:36:34;2.30;;;1.07;;
2289;SDS011;1153;47.986;7.898;2023-04-25T05:39:01;1.07;;;0.80;;
2289;SDS011;1153;47.986;7.898;2023-04-25T05:41:26;2.50;;;1.23;;
2289;SDS011;1153;47.986;7.898;2023-04-25T05:43:51;2.10;;;0.80;;
2289;SDS011;1153;47.986;7.898;2023-04-25T05:46:16;1.13;;;0.50;;
2289;SDS011;1153;47.986;7.898;2023-04-25T05:48:44;1.00;;;0.50;;
2289;SDS011;1153;47.986;7.898;2023-04-25T05:51:10;1.10;;;0.40;;
2289;SDS011;1153;47.986;7.898;2023-04-25T05:53:35;0.80;;;0.60;;
2289;SDS011;1153;47.986;7.898;2023-04-25T05:56:00;2.50;;;0.40;;
2289;SDS011;1153;47.986;7.898;2023-04-25T05:58:26;1.00;;;0.50;;
2289;SDS011;1153;47.986;7.898;2023-04-25T06:00:51;2.20;;;0.60;;
2289;SDS011;1153;47.986;7.898;2023-04-25T06:03:16;0.70;;;0.60;;
2289;SDS011;1153;47.986;7.898;2023-04-25T06:05:42;0.93;;;0.40;;
2289;SDS011;1153;47.986;7.898;2023-04-25T06:08:07;0.80;;;0.40;;
2289;SDS011;1153;47.986;7.898;2023-04-25T06:10:32;0.60;;;0.40;;
2289;SDS011;1153;47.986;7.898;2023-04-25T06:12:58;2.00;;;1.90;;
2289;SDS011;1153;47.986;7.898;2023-04-25T06:15:23;2.10;;;1.37;;
2289;SDS011;1153;47.986;7.898;2023-04-25T06:17:48;0.90;;;0.43;;
2289;SDS011;1153;47.986;7.898;2023-04-25T06:20:13;0.87;;;0.40;;
2289;SDS011;1153;47.986;7.898;2023-04-25T06:22:39;0.97;;;0.87;;
2289;SDS011;1153;47.986;7.898;2023-04-25T06:25:04;0.70;;;0.40;;
2289;SDS011;1153;47.986;7.898;2023-04-25T06:27:30;1.73;;;0.40;;
2289;SDS011;1153;47.986;7.898;2023-04-25T06:29:55;0.60;;;0.30;;
2289;SDS011;1153;47.986;7.898;2023-04-25T06:32:20;5.50;;;0.50;;
2289;SDS011;1153;47.986;7.898;2023-04-25T06:34:46;3.47;;;0.50;;
2289;SDS011;1153;47.986;7.898;2023-04-25T06:37:11;0.80;;;0.40;;
2289;SDS011;1153;47.986;7.898;2023-04-25T06:39:36;1.37;;;0.40;;
2289;SDS011;1153;47.986;7.898;2023-04-25T06:42:01;0.60;;;0.30;;
2289;SDS011;1153;47.986;7.898;2023-04-25T06:44:27;0.60;;;0.30;;
2289;SDS011;1153;47.986;7.898;2023-04-25T06:46:54;0.90;;;0.30;;
2289;SDS011;1153;47.986;7.898;2023-04-25T06:49:19;0.60;;;0.30;;
2289;SDS011;1153;47.986;7.898;2023-04-25T06:51:44;0.60;;;0.30;;
2289;SDS011;1153;47.986;7.898;2023-04-25T06:54:10;0.70;;;0.30;;
2289;SDS011;1153;47.986;7.898;2023-04-25T06:56:35;0.63;;;0.30;;
2289;SDS011;1153;47.986;7.898;2023-04-25T06:59:00;0.70;;;0.40;;
2289;SDS011;1153;47.986;7.898;2023-04-25T07:01:25;0.60;;;0.30;;
2289;SDS011;1153;47.986;7.898;2023-04-25T07:03:51;0.87;;;0.60;;
2289;SDS011;1153;47.986;7.898;2023-04-25T07:06:16;0.67;;;0.40;;
2289;SDS011;1153;47.986;7.898;2023-04-25T07:08:41;1.63;;;0.30;;
2289;SDS011;1153;47.986;7.898;2023-04-25T07:11:06;0.70;;;0.30;;
2289;SDS011;1153;47.986;7.898;2023-04-25T07:13:31;0.80;;;0.50;;
2289;SDS011;1153;47.986;7.898;2023-04-25T07:15:57;0.93;;;0.70;;
2289;SDS011;1153;47.986;7.898;2023-04-25T07:18:22;0.73;;;0.30;;
2289;SDS011;1153;47.986;7.898;2023-04-25T07:20:47;1.77;;;0.40;;
2289;SDS011;1153;47.986;7.898;2023-04-25T07:23:12;0.73;;;0.40;;
2289;SDS011;1153;47.986;7.898;2023-04-25T07:25:37;0.77;;;0.40;;
2289;SDS011;1153;47.986;7.898;2023-04-25T07:28:03;0.80;;;0.47;;
2289;SDS011;1153;47.986;7.898;2023-04-25T07:30:28;1.80;;;0.50;;
2289;SDS011;1153;47.986;7.898;2023-04-25T07:32:53;0.80;;;0.47;;
2289;SDS011;1153;47.986;7.898;2023-04-25T07:35:18;0.90;;;0.50;;
2289;SDS011;1153;47.986;7.898;2023-04-25T07:37:44;1.10;;;1.00;;
2289;SDS011;1153;47.986;7.898;2023-04-25T07:40:09;1.00;;;0.60;;
2289;SDS011;1153;47.986;7.898;2023-04-25T07:42:34;1.30;;;0.80;;
2289;SDS011;1153;47.986;7.898;2023-04-25T07:45:00;1.10;;;0.60;;
2289;SDS011;1153;47.986;7.898;2023-04-25T07:47:25;2.50;;;0.60;;
2289;SDS011;1153;47.986;7.898;2023-04-25T07:49:51;1.00;;;0.60;;
2289;SDS011;1153;47.986;7.898;2023-04-25T07:52:16;1.17;;;0.80;;
2289;SDS011;1153;47.986;7.898;2023-04-25T07:54:41;1.23;;;0.93;;
2289;SDS011;1153;47.986;7.898;2023-04-25T07:57:06;2.90;;;1.03;;
2289;SDS011;1153;47.986;7.898;2023-04-25T07:59:32;1.20;;;1.10;;
2289;SDS011;1153;47.986;7.898;2023-04-25T08:01:57;2.07;;;0.83;;
2289;SDS011;1153;47.986;7.898;2023-04-25T08:04:23;0.80;;;0.70;;
2289;SDS011;1153;47.986;7.898;2023-04-25T08:06:48;1.83;;;0.50;;
2289;SDS011;1153;47.986;7.898;2023-04-25T08:09:15;2.27;;;0.50;;
2289;SDS011;1153;47.986;7.898;2023-04-25T08:11:40;1.07;;;0.50;;
2289;SDS011;1153;47.986;7.898;2023-04-25T08:14:06;1.40;;;0.70;;
2289;SDS011;1153;47.986;7.898;2023-04-25T08:16:31;1.10;;;1.00;;
2289;SDS011;1153;47.986;7.898;2023-04-25T08:18:57;1.17;;;0.80;;
2289;SDS011;1153;47.986;7.898;2023-04-25T08:21:22;1.10;;;1.00;;
2289;SDS011;1153;47.986;7.898;2023-04-25T08:23:47;4.83;;;1.33;;
2289;SDS011;1153;47.986;7.898;2023-04-25T08:26:12;6.03;;;1.13;;
2289;SDS011;1153;47.986;7.898;2023-04-25T08:28:37;1.10;;;0.80;;
2289;SDS011;1153;47.986;7.898;2023-04-25T08:31:03;1.03;;;0.70;;
2289;SDS011;1153;47.986;7.898;2023-04-25T08:33:28;1.20;;;0.90;;
2289;SDS011;1153;47.986;7.898;2023-04-25T08:35:53;2.70;;;0.80;;
2289;SDS011;1153;47.986;7.898;2023-04-25T08:38:19;1.10;;;0.90;;
2289;SDS011;1153;47.986;7.898;2023-04-25T08:40:44;2.47;;;1.27;;
2289;SDS011;1153;47.986;7.898;2023-04-25T08:43:13;1.67;;;1.10;;
2289;SDS011;1153;47.986;7.898;2023-04-25T08:45:40;1.83;;;1.00;;
2289;SDS011;1153;47.986;7.898;2023-04-25T08:48:07;3.77;;;0.90;;
2289;SDS011;1153;47.986;7.898;2023-04-25T08:50:32;1.53;;;1.10;;
2289;SDS011;1153;47.986;7.898;2023-04-25T08:52:58;1.13;;;0.97;;
2289;SDS011;1153;47.986;7.898;2023-04-25T08:55:26;4.07;;;0.83;;
2289;SDS011;1153;47.986;7.898;2023-04-25T08:57:52;1.10;;;0.83;;
2289;SDS011;1153;47.986;7.898;2023-04-25T09:00:19;2.20;;;0.80;;
2289;SDS011;1153;47.986;7.898;2023-04-25T09:02:45;2.00;;;0.97;;
2289;SDS011;1153;47.986;7.898;2023-04-25T09:05:12;1.10;;;1.00;;
2289;SDS011;1153;47.986;7.898;2023-04-25T09:07:37;1.27;;;1.17;;
2289;SDS011;1153;47.986;7.898;2023-04-25T09:10:02;1.73;;;0.87;;
2289;SDS011;1153;47.986;7.898;2023-04-25T09:12:28;1.40;;;1.00;;
2289;SDS011;1153;47.986;7.898;2023-04-25T09:17:29;2.40;;;0.70;;
2289;SDS011;1153;47.986;7.898;2023-04-25T09:19:54;0.90;;;0.60;;
2289;SDS011;1153;47.986;7.898;2023-04-25T09:22:19;1.63;;;1.27;;
2289;SDS011;1153;47.986;7.898;2023-04-25T09:24:47;1.53;;;1.03;;
2289;SDS011;1153;47.986;7.898;2023-04-25T09:27:17;1.00;;;0.80;;
2289;SDS011;1153;47.986;7.898;2023-04-25T09:29:43;1.10;;;0.83;;
2289;SDS011;1153;47.986;7.898;2023-04-25T09:32:12;1.33;;;0.77;;
2289;SDS011;1153;47.986;7.898;2023-04-25T09:34:41;1.70;;;1.17;;
2289;SDS011;1153;47.986;7.898;2023-04-25T09:37:10;2.37;;;0.80;;
2289;SDS011;1153;47.986;7.898;2023-04-25T09:39:36;2.17;;;0.80;;
2289;SDS011;1153;47.986;7.898;2023-04-25T09:42:02;0.90;;;0.70;;
2289;SDS011;1153;47.986;7.898;2023-04-25T09:44:28;2.30;;;1.13;;
2289;SDS011;1153;47.986;7.898;2023-04-25T09:46:53;1.10;;;0.70;;
2289;SDS011;1153;47.986;7.898;2023-04-25T09:49:19;0.90;;;0.70;;
2289;SDS011;1153;47.986;7.898;2023-04-25T09:51:53;1.93;;;0.83;;
2289;SDS011;1153;47.986;7.898;2023-04-25T09:54:18;1.40;;;0.80;;
2289;SDS011;1153;47.986;7.898;2023-04-25T09:56:43;1.20;;;0.70;;
2289;SDS011;1153;47.986;7.898;2023-04-25T09:59:12;1.50;;;1.07;;
2289;SDS011;1153;47.986;7.898;2023-04-25T10:01:37;1.50;;;0.73;;
2289;SDS011;1153;47.986;7.898;2023-04-25T10:04:05;1.50;;;1.00;;
2289;SDS011;1153;47.986;7.898;2023-04-25T10:06:32;2.20;;;1.30;;
2289;SDS011;1153;47.986;7.898;2023-04-25T10:08:59;1.43;;;1.00;;
2289;SDS011;1153;47.986;7.898;2023-04-25T10:11:25;1.10;;;0.80;;
2289;SDS011;1153;47.986;7.898;2023-04-25T10:13:51;1.47;;;0.83;;
2289;SDS011;1153;47.986;7.898;2023-04-25T10:16:17;2.17;;;1.97;;
2289;SDS011;1153;47.986;7.898;2023-04-25T10:18:43;2.40;;;1.87;;
2289;SDS011;1153;47.986;7.898;2023-04-25T10:21:08;1.30;;;0.70;;
2289;SDS011;1153;47.986;7.898;2023-04-25T10:23:35;1.43;;;0.83;;
2289;SDS011;1153;47.986;7.898;2023-04-25T10:26:01;0.80;;;0.63;;
2289;SDS011;1153;47.986;7.898;2023-04-25T10:28:27;1.30;;;0.83;;
2289;SDS011;1153;47.986;7.898;2023-04-25T10:30:56;0.90;;;0.63;;
2289;SDS011;1153;47.986;7.898;2023-04-25T10:33:28;0.90;;;0.70;;
2289;SDS011;1153;47.986;7.898;2023-04-25T10:35:54;0.97;;;0.60;;
2289;SDS011;1153;47.986;7.898;2023-04-25T10:38:22;1.20;;;0.90;;
2289;SDS011;1153;47.986;7.898;2023-04-25T10:41:03;1.13;;;1.00;;
2289;SDS011;1153;47.986;7.898;2023-04-25T10:48:48;1.10;;;0.77;;
2289;SDS011;1153;47.986;7.898;2023-04-25T10:51:17;1.60;;;0.90;;
2289;SDS011;1153;47.986;7.898;2023-04-25T10:53:44;0.80;;;0.50;;
2289;SDS011;1153;47.986;7.898;2023-04-25T10:56:10;1.03;;;0.60;;
2289;SDS011;1153;47.986;7.898;2023-04-25T10:58:35;0.90;;;0.80;;
2289;SDS011;1153;47.986;7.898;2023-04-25T11:01:01;1.50;;;0.70;;
2289;SDS011;1153;47.986;7.898;2023-04-25T11:03:26;1.23;;;0.50;;
2289;SDS011;1153;47.986;7.898;2023-04-25T11:05:51;1.10;;;0.83;;
2289;SDS011;1153;47.986;7.898;2023-04-25T11:08:18;2.10;;;0.70;;
2289;SDS011;1153;47.986;7.898;2023-04-25T11:10:49;1.17;;;0.90;;
2289;SDS011;1153;47.986;7.898;2023-04-25T11:13:14;0.90;;;0.70;;
2289;SDS011;1153;47.986;7.898;2023-04-25T11:15:39;0.93;;;0.80;;
2289;SDS011;1153;47.986;7.898;2023-04-25T11:18:04;1.80;;;0.67;;
2289;SDS011;1153;47.986;7.898;2023-04-25T11:20:30;2.20;;;1.03;;
2289;SDS011;1153;47.986;7.898;2023-04-25T11:22:57;1.00;;;0.70;;
2289;SDS011;1153;47.986;7.898;2023-04-25T11:25:22;1.00;;;0.60;;
2289;SDS011;1153;47.986;7.898;2023-04-25T11:27:55;1.07;;;0.57;;
2289;SDS011;1153;47.986;7.898;2023-04-25T11:30:22;1.40;;;0.77;;
2289;SDS011;1153;47.986;7.898;2023-04-25T11:32:47;0.93;;;0.80;;
2289;SDS011;1153;47.986;7.898;2023-04-25T11:35:12;1.10;;;0.70;;
2289;SDS011;1153;47.986;7.898;2023-04-25T11:37:41;0.90;;;0.60;;
2289;SDS011;1153;47.986;7.898;2023-04-25T11:40:07;2.70;;;0.60;;
2289;SDS011;1153;47.986;7.898;2023-04-25T11:42:33;5.33;;;0.80;;
2289;SDS011;1153;47.986;7.898;2023-04-25T11:44:59;0.90;;;0.77;;
2289;SDS011;1153;47.986;7.898;2023-04-25T11:47:31;2.10;;;0.63;;
2289;SDS011;1153;47.986;7.898;2023-04-25T11:50:00;1.20;;;0.63;;
2289;SDS011;1153;47.986;7.898;2023-04-25T11:52:45;1.00;;;0.60;;
2289;SDS011;1153;47.986;7.898;2023-04-25T11:55:14;1.00;;;0.60;;
2289;SDS011;1153;47.986;7.898;2023-04-25T11:57:40;1.30;;;0.50;;
2289;SDS011;1153;47.986;7.898;2023-04-25T12:00:07;2.20;;;0.80;;
2289;SDS011;1153;47.986;7.898;2023-04-25T12:02:34;1.03;;;0.70;;
2289;SDS011;1153;47.986;7.898;2023-04-25T12:04:59;4.50;;;0.60;;
2289;SDS011;1153;47.986;7.898;2023-04-25T12:07:29;1.00;;;0.70;;
2289;SDS011;1153;47.986;7.898;2023-04-25T12:09:55;1.83;;;0.60;;
2289;SDS011;1153;47.986;7.898;2023-04-25T12:12:20;1.10;;;0.60;;
2289;SDS011;1153;47.986;7.898;2023-04-25T12:14:46;1.23;;;0.97;;
2289;SDS011;1153;47.986;7.898;2023-04-25T12:17:12;0.97;;;0.80;;
2289;SDS011;1153;47.986;7.898;2023-04-25T12:19:38;1.50;;;0.70;;
2289;SDS011;1153;47.986;7.898;2023-04-25T12:22:18;1.30;;;1.20;;
2289;SDS011;1153;47.986;7.898;2023-04-25T12:24:45;1.00;;;0.87;;
2289;SDS011;1153;47.986;7.898;2023-04-25T12:27:10;1.00;;;0.70;;
2289;SDS011;1153;47.986;7.898;2023-04-25T12:29:35;1.10;;;1.00;;
2289;SDS011;1153;47.986;7.898;2023-04-25T12:32:00;2.70;;;0.73;;
2289;SDS011;1153;47.986;7.898;2023-04-25T12:34:29;1.03;;;0.93;;
2289;SDS011;1153;47.986;7.898;2023-04-25T12:36:56;1.10;;;0.97;;
2289;SDS011;1153;47.986;7.898;2023-04-25T12:39:22;2.20;;;0.70;;
2289;SDS011;1153;47.986;7.898;2023-04-25T12:41:48;3.07;;;0.70;;
2289;SDS011;1153;47.986;7.898;2023-04-25T12:44:14;0.90;;;0.73;;
2289;SDS011;1153;47.986;7.898;2023-04-25T12:46:39;1.30;;;0.80;;
2289;SDS011;1153;47.986;7.898;2023-04-25T12:49:05;1.10;;;0.80;;
2289;SDS011;1153;47.986;7.898;2023-04-25T12:51:33;1.13;;;1.03;;
2289;SDS011;1153;47.986;7.898;2023-04-25T12:53:58;1.10;;;0.77;;
2289;SDS011;1153;47.986;7.898;2023-04-25T12:56:25;0.83;;;0.60;;
2289;SDS011;1153;47.986;7.898;2023-04-25T12:58:51;5.37;;;1.07;;
2289;SDS011;1153;47.986;7.898;2023-04-25T13:01:17;1.13;;;0.60;;
2289;SDS011;1153;47.986;7.898;2023-04-25T13:03:42;1.00;;;0.60;;
2289;SDS011;1153;47.986;7.898;2023-04-25T13:06:08;0.93;;;0.60;;
2289;SDS011;1153;47.986;7.898;2023-04-25T13:08:33;1.50;;;0.53;;
2289;SDS011;1153;47.986;7.898;2023-04-25T13:10:59;1.83;;;0.73;;
2289;SDS011;1153;47.986;7.898;2023-04-25T13:13:25;1.10;;;1.00;;
2289;SDS011;1153;47.986;7.898;2023-04-25T13:15:52;0.90;;;0.60;;
2289;SDS011;1153;47.986;7.898;2023-04-25T13:18:18;3.97;;;0.40;;
2289;SDS011;1153;47.986;7.898;2023-04-25T13:20:44;1.03;;;0.50;;
2289;SDS011;1153;47.986;7.898;2023-04-25T13:23:10;0.80;;;0.40;;
2289;SDS011;1153;47.986;7.898;2023-04-25T13:25:35;2.83;;;0.50;;
2289;SDS011;1153;47.986;7.898;2023-04-25T13:28:01;1.47;;;0.50;;
2289;SDS011;1153;47.986;7.898;2023-04-25T13:30:26;0.80;;;0.50;;
2289;SDS011;1153;47.986;7.898;2023-04-25T13:32:51;0.70;;;0.40;;
2289;SDS011;1153;47.986;7.898;2023-04-25T13:35:18;0.83;;;0.50;;
2289;SDS011;1153;47.986;7.898;2023-04-25T13:37:43;1.10;;;0.40;;
2289;SDS011;1153;47.986;7.898;2023-04-25T13:40:09;0.77;;;0.43;;
2289;SDS011;1153;47.986;7.898;2023-04-25T13:42:36;0.70;;;0.50;;
2289;SDS011;1153;47.986;7.898;2023-04-25T13:45:01;0.90;;;0.50;;
2289;SDS011;1153;47.986;7.898;2023-04-25T13:47:27;0.60;;;0.30;;
2289;SDS011;1153;47.986;7.898;2023-04-25T13:49:53;1.67;;;0.33;;
2289;SDS011;1153;47.986;7.898;2023-04-25T13:52:18;0.60;;;0.30;;
2289;SDS011;1153;47.986;7.898;2023-04-25T13:54:43;0.50;;;0.30;;
2289;SDS011;1153;47.986;7.898;2023-04-25T13:57:09;0.60;;;0.40;;
2289;SDS011;1153;47.986;7.898;2023-04-25T13:59:35;0.90;;;0.30;;
2289;SDS011;1153;47.986;7.898;2023-04-25T14:02:01;2.97;;;0.30;;
2289;SDS011;1153;47.986;7.898;2023-04-25T14:04:26;0.53;;;0.30;;
2289;SDS011;1153;47.986;7.898;2023-04-25T14:06:52;0.70;;;0.30;;
2289;SDS011;1153;47.986;7.898;2023-04-25T14:09:19;0.60;;;0.30;;
2289;SDS011;1153;47.986;7.898;2023-04-25T14:11:45;10.93;;;0.40;;
2289;SDS011;1153;47.986;7.898;2023-04-25T14:14:11;0.57;;;0.30;;
2289;SDS011;1153;47.986;7.898;2023-04-25T14:16:37;0.70;;;0.40;;
2289;SDS011;1153;47.986;7.898;2023-04-25T14:19:02;0.67;;;0.30;;
2289;SDS011;1153;47.986;7.898;2023-04-25T14:21:28;1.00;;;0.40;;
2289;SDS011;1153;47.986;7.898;2023-04-25T14:23:53;1.00;;;0.40;;
2289;SDS011;1153;47.986;7.898;2023-04-25T14:26:19;0.60;;;0.40;;
2289;SDS011;1153;47.986;7.898;2023-04-25T14:28:44;0.80;;;0.30;;
2289;SDS011;1153;47.986;7.898;2023-04-25T14:31:10;0.60;;;0.40;;
2289;SDS011;1153;47.986;7.898;2023-04-25T14:33:35;0.70;;;0.40;;
2289;SDS011;1153;47.986;7.898;2023-04-25T14:36:02;1.50;;;0.50;;
2289;SDS011;1153;47.986;7.898;2023-04-25T14:38:27;0.70;;;0.43;;
2289;SDS011;1153;47.986;7.898;2023-04-25T14:40:52;0.50;;;0.40;;
2289;SDS011;1153;47.986;7.898;2023-04-25T14:43:18;0.77;;;0.50;;
2289;SDS011;1153;47.986;7.898;2023-04-25T14:45:44;0.70;;;0.40;;
2289;SDS011;1153;47.986;7.898;2023-04-25T14:48:09;0.70;;;0.40;;
2289;SDS011;1153;47.986;7.898;2023-04-25T14:50:34;0.60;;;0.40;;
2289;SDS011;1153;47.986;7.898;2023-04-25T14:53:00;0.60;;;0.40;;
2289;SDS011;1153;47.986;7.898;2023-04-25T14:55:26;0.93;;;0.40;;
2289;SDS011;1153;47.986;7.898;2023-04-25T14:57:52;0.60;;;0.40;;
2289;SDS011;1153;47.986;7.898;2023-04-25T15:00:17;0.60;;;0.40;;
2289;SDS011;1153;47.986;7.898;2023-04-25T15:02:45;0.70;;;0.40;;
2289;SDS011;1153;47.986;7.898;2023-04-25T15:05:10;0.60;;;0.30;;
2289;SDS011;1153;47.986;7.898;2023-04-25T15:07:36;1.03;;;0.40;;
2289;SDS011;1153;47.986;7.898;2023-04-25T15:10:01;1.10;;;0.50;;
2289;SDS011;1153;47.986;7.898;2023-04-25T15:12:27;0.70;;;0.40;;
2289;SDS011;1153;47.986;7.898;2023-04-25T15:14:53;0.60;;;0.40;;